sensor_id;sensor_type;location;lat;lon;timestamp;P1;durP1;ratioP1;P2;durP2;ratioP2
31210;SDS011;17836;50.948;3.946;2022-07-23T00:00:36;9.43;;;5.00;;
31210;SDS011;17836;50.948;3.946;2022-07-23T00:03:01;6.85;;;4.50;;
31210;SDS011;17836;50.948;3.946;2022-07-23T00:05:26;5.07;;;4.57;;
31210;SDS011;17836;50.948;3.946;2022-07-23T00:07:51;4.55;;;4.15;;
31210;SDS011;17836;50.948;3.946;2022-07-23T00:10:17;5.10;;;4.60;;
31210;SDS011;17836;50.948;3.946;2022-07-23T00:12:42;4.73;;;4.20;;
31210;SDS011;17836;50.948;3.946;2022-07-23T00:15:07;4.35;;;3.83;;
31210;SDS011;17836;50.948;3.946;2022-07-23T00:17:33;5.18;;;4.20;;
31210;SDS011;17836;50.948;3.946;2022-07-23T00:19:58;6.27;;;4.03;;
31210;SDS011;17836;50.948;3.946;2022-07-23T00:22:23;5.33;;;4.77;;
31210;SDS011;17836;50.948;3.946;2022-07-23T00:24:49;4.37;;;3.97;;
31210;SDS011;17836;50.948;3.946;2022-07-23T00:27:14;6.65;;;4.53;;
31210;SDS011;17836;50.948;3.946;2022-07-23T00:29:39;6.93;;;4.77;;
31210;SDS011;17836;50.948;3.946;2022-07-23T00:32:04;5.50;;;4.83;;
31210;SDS011;17836;50.948;3.946;2022-07-23T00:34:30;7.28;;;6.25;;
31210;SDS011;17836;50.948;3.946;2022-07-23T00:36:55;7.28;;;4.93;;
31210;SDS011;17836;50.948;3.946;2022-07-23T00:39:21;5.50;;;5.00;;
31210;SDS011;17836;50.948;3.946;2022-07-23T00:41:47;5.93;;;5.35;;
31210;SDS011;17836;50.948;3.946;2022-07-23T00:44:16;7.97;;;4.93;;
31210;SDS011;17836;50.948;3.946;2022-07-23T00:47:00;5.75;;;5.05;;
31210;SDS011;17836;50.948;3.946;2022-07-23T00:49:26;6.68;;;5.05;;
31210;SDS011;17836;50.948;3.946;2022-07-23T00:51:52;5.78;;;4.85;;
31210;SDS011;17836;50.948;3.946;2022-07-23T00:54:18;6.28;;;5.13;;
31210;SDS011;17836;50.948;3.946;2022-07-23T00:56:44;5.18;;;4.38;;
31210;SDS011;17836;50.948;3.946;2022-07-23T00:59:10;4.97;;;4.47;;
31210;SDS011;17836;50.948;3.946;2022-07-23T01:01:35;5.60;;;4.70;;
31210;SDS011;17836;50.948;3.946;2022-07-23T01:04:01;6.18;;;5.50;;
31210;SDS011;17836;50.948;3.946;2022-07-23T01:06:27;5.72;;;5.03;;
31210;SDS011;17836;50.948;3.946;2022-07-23T01:08:55;6.22;;;5.63;;
31210;SDS011;17836;50.948;3.946;2022-07-23T01:11:22;6.20;;;4.57;;
31210;SDS011;17836;50.948;3.946;2022-07-23T01:13:47;6.00;;;5.40;;
31210;SDS011;17836;50.948;3.946;2022-07-23T01:16:13;7.70;;;6.07;;
31210;SDS011;17836;50.948;3.946;2022-07-23T01:18:38;5.40;;;4.70;;
31210;SDS011;17836;50.948;3.946;2022-07-23T01:21:04;5.38;;;4.88;;
31210;SDS011;17836;50.948;3.946;2022-07-23T01:23:30;5.72;;;4.82;;
31210;SDS011;17836;50.948;3.946;2022-07-23T01:25:55;5.93;;;5.37;;
31210;SDS011;17836;50.948;3.946;2022-07-23T01:28:21;6.20;;;4.60;;
31210;SDS011;17836;50.948;3.946;2022-07-23T01:30:46;6.63;;;5.90;;
31210;SDS011;17836;50.948;3.946;2022-07-23T01:33:12;7.10;;;6.40;;
31210;SDS011;17836;50.948;3.946;2022-07-23T01:35:37;6.73;;;5.63;;
31210;SDS011;17836;50.948;3.946;2022-07-23T01:38:02;6.47;;;5.70;;
31210;SDS011;17836;50.948;3.946;2022-07-23T01:40:28;5.53;;;4.97;;
31210;SDS011;17836;50.948;3.946;2022-07-23T01:42:53;7.60;;;6.33;;
31210;SDS011;17836;50.948;3.946;2022-07-23T01:45:19;8.57;;;4.90;;
31210;SDS011;17836;50.948;3.946;2022-07-23T01:47:44;9.80;;;5.40;;
31210;SDS011;17836;50.948;3.946;2022-07-23T01:50:09;5.88;;;5.28;;
31210;SDS011;17836;50.948;3.946;2022-07-23T01:52:35;5.38;;;4.88;;
31210;SDS011;17836;50.948;3.946;2022-07-23T01:55:00;6.55;;;5.22;;
31210;SDS011;17836;50.948;3.946;2022-07-23T01:57:25;8.25;;;4.95;;
31210;SDS011;17836;50.948;3.946;2022-07-23T01:59:50;6.03;;;5.00;;
31210;SDS011;17836;50.948;3.946;2022-07-23T02:02:16;5.22;;;4.72;;
31210;SDS011;17836;50.948;3.946;2022-07-23T02:04:41;5.50;;;4.88;;
31210;SDS011;17836;50.948;3.946;2022-07-23T02:07:07;6.97;;;5.30;;
31210;SDS011;17836;50.948;3.946;2022-07-23T02:09:32;10.07;;;5.07;;
31210;SDS011;17836;50.948;3.946;2022-07-23T02:11:58;5.35;;;4.85;;
31210;SDS011;17836;50.948;3.946;2022-07-23T02:14:23;5.57;;;5.07;;
31210;SDS011;17836;50.948;3.946;2022-07-23T02:16:49;5.72;;;5.13;;
31210;SDS011;17836;50.948;3.946;2022-07-23T02:19:14;5.20;;;4.57;;
31210;SDS011;17836;50.948;3.946;2022-07-23T02:21:39;5.83;;;5.30;;
31210;SDS011;17836;50.948;3.946;2022-07-23T02:24:05;9.45;;;6.25;;
31210;SDS011;17836;50.948;3.946;2022-07-23T02:26:32;9.90;;;5.93;;
31210;SDS011;17836;50.948;3.946;2022-07-23T02:28:59;6.47;;;5.88;;
31210;SDS011;17836;50.948;3.946;2022-07-23T02:31:25;6.63;;;5.93;;
31210;SDS011;17836;50.948;3.946;2022-07-23T02:33:51;9.75;;;6.45;;
31210;SDS011;17836;50.948;3.946;2022-07-23T02:36:16;6.53;;;5.60;;
31210;SDS011;17836;50.948;3.946;2022-07-23T02:38:41;6.73;;;6.03;;
31210;SDS011;17836;50.948;3.946;2022-07-23T02:41:06;6.90;;;6.20;;
31210;SDS011;17836;50.948;3.946;2022-07-23T02:43:31;6.73;;;6.10;;
31210;SDS011;17836;50.948;3.946;2022-07-23T02:45:57;5.83;;;5.27;;
31210;SDS011;17836;50.948;3.946;2022-07-23T02:48:22;6.93;;;5.00;;
31210;SDS011;17836;50.948;3.946;2022-07-23T02:50:47;6.87;;;5.90;;
31210;SDS011;17836;50.948;3.946;2022-07-23T02:53:13;6.60;;;5.90;;
31210;SDS011;17836;50.948;3.946;2022-07-23T02:55:38;5.80;;;5.28;;
31210;SDS011;17836;50.948;3.946;2022-07-23T02:58:03;5.43;;;4.93;;
31210;SDS011;17836;50.948;3.946;2022-07-23T03:00:28;7.30;;;5.70;;
31210;SDS011;17836;50.948;3.946;2022-07-23T03:02:53;7.87;;;5.43;;
31210;SDS011;17836;50.948;3.946;2022-07-23T03:05:19;6.17;;;5.57;;
31210;SDS011;17836;50.948;3.946;2022-07-23T03:07:44;8.57;;;5.32;;
31210;SDS011;17836;50.948;3.946;2022-07-23T03:10:09;6.18;;;5.57;;
31210;SDS011;17836;50.948;3.946;2022-07-23T03:12:35;6.87;;;5.90;;
31210;SDS011;17836;50.948;3.946;2022-07-23T03:15:00;9.33;;;6.77;;
31210;SDS011;17836;50.948;3.946;2022-07-23T03:17:25;7.57;;;6.83;;
31210;SDS011;17836;50.948;3.946;2022-07-23T03:19:50;8.97;;;6.87;;
31210;SDS011;17836;50.948;3.946;2022-07-23T03:22:15;8.07;;;7.27;;
31210;SDS011;17836;50.948;3.946;2022-07-23T03:24:41;9.03;;;7.20;;
31210;SDS011;17836;50.948;3.946;2022-07-23T03:27:22;7.97;;;7.18;;
31210;SDS011;17836;50.948;3.946;2022-07-23T03:29:47;7.45;;;6.78;;
31210;SDS011;17836;50.948;3.946;2022-07-23T03:32:12;8.97;;;7.27;;
31210;SDS011;17836;50.948;3.946;2022-07-23T03:34:38;7.73;;;6.93;;
31210;SDS011;17836;50.948;3.946;2022-07-23T03:37:03;7.43;;;6.70;;
31210;SDS011;17836;50.948;3.946;2022-07-23T03:39:28;7.95;;;7.15;;
31210;SDS011;17836;50.948;3.946;2022-07-23T03:41:53;7.70;;;6.90;;
31210;SDS011;17836;50.948;3.946;2022-07-23T03:44:19;8.38;;;6.63;;
31210;SDS011;17836;50.948;3.946;2022-07-23T03:46:44;7.13;;;6.40;;
31210;SDS011;17836;50.948;3.946;2022-07-23T03:49:09;9.57;;;6.73;;
31210;SDS011;17836;50.948;3.946;2022-07-23T03:51:34;7.90;;;7.10;;
31210;SDS011;17836;50.948;3.946;2022-07-23T03:54:00;7.57;;;6.50;;
31210;SDS011;17836;50.948;3.946;2022-07-23T03:56:25;8.50;;;7.50;;
31210;SDS011;17836;50.948;3.946;2022-07-23T03:58:51;8.50;;;6.35;;
31210;SDS011;17836;50.948;3.946;2022-07-23T04:01:16;7.70;;;6.90;;
31210;SDS011;17836;50.948;3.946;2022-07-23T04:03:41;7.22;;;6.50;;
31210;SDS011;17836;50.948;3.946;2022-07-23T04:06:06;6.10;;;5.50;;
31210;SDS011;17836;50.948;3.946;2022-07-23T04:08:32;7.23;;;6.53;;
31210;SDS011;17836;50.948;3.946;2022-07-23T04:10:57;11.73;;;6.80;;
31210;SDS011;17836;50.948;3.946;2022-07-23T04:13:22;7.33;;;6.63;;
31210;SDS011;17836;50.948;3.946;2022-07-23T04:15:47;7.77;;;6.93;;
31210;SDS011;17836;50.948;3.946;2022-07-23T04:18:13;8.13;;;6.80;;
31210;SDS011;17836;50.948;3.946;2022-07-23T04:20:42;8.13;;;6.47;;
31210;SDS011;17836;50.948;3.946;2022-07-23T04:23:07;6.77;;;6.13;;
31210;SDS011;17836;50.948;3.946;2022-07-23T04:25:32;7.05;;;6.35;;
31210;SDS011;17836;50.948;3.946;2022-07-23T04:27:57;7.60;;;6.10;;
31210;SDS011;17836;50.948;3.946;2022-07-23T04:30:23;7.13;;;6.23;;
31210;SDS011;17836;50.948;3.946;2022-07-23T04:32:48;7.47;;;6.72;;
31210;SDS011;17836;50.948;3.946;2022-07-23T04:35:14;10.23;;;6.45;;
31210;SDS011;17836;50.948;3.946;2022-07-23T04:37:39;9.07;;;6.17;;
31210;SDS011;17836;50.948;3.946;2022-07-23T04:40:05;8.40;;;6.47;;
31210;SDS011;17836;50.948;3.946;2022-07-23T04:42:30;8.55;;;7.28;;
31210;SDS011;17836;50.948;3.946;2022-07-23T04:44:55;8.98;;;8.07;;
31210;SDS011;17836;50.948;3.946;2022-07-23T04:47:21;8.00;;;7.20;;
31210;SDS011;17836;50.948;3.946;2022-07-23T04:49:46;10.57;;;7.40;;
31210;SDS011;17836;50.948;3.946;2022-07-23T04:52:11;7.57;;;6.80;;
31210;SDS011;17836;50.948;3.946;2022-07-23T04:54:36;8.43;;;7.20;;
31210;SDS011;17836;50.948;3.946;2022-07-23T04:57:02;9.37;;;7.53;;
31210;SDS011;17836;50.948;3.946;2022-07-23T04:59:27;7.40;;;6.73;;
31210;SDS011;17836;50.948;3.946;2022-07-23T05:01:52;7.60;;;5.93;;
31210;SDS011;17836;50.948;3.946;2022-07-23T05:04:18;7.23;;;6.53;;
31210;SDS011;17836;50.948;3.946;2022-07-23T05:06:43;7.55;;;6.45;;
31210;SDS011;17836;50.948;3.946;2022-07-23T05:09:08;6.83;;;6.17;;
31210;SDS011;17836;50.948;3.946;2022-07-23T05:11:33;8.50;;;6.53;;
31210;SDS011;17836;50.948;3.946;2022-07-23T05:13:58;7.07;;;6.47;;
31210;SDS011;17836;50.948;3.946;2022-07-23T05:16:24;8.30;;;6.63;;
31210;SDS011;17836;50.948;3.946;2022-07-23T05:18:49;7.23;;;6.37;;
31210;SDS011;17836;50.948;3.946;2022-07-23T05:21:15;6.60;;;6.00;;
31210;SDS011;17836;50.948;3.946;2022-07-23T05:23:40;7.70;;;6.30;;
31210;SDS011;17836;50.948;3.946;2022-07-23T05:26:05;6.80;;;6.10;;
31210;SDS011;17836;50.948;3.946;2022-07-23T05:28:30;7.87;;;7.07;;
31210;SDS011;17836;50.948;3.946;2022-07-23T05:30:55;7.07;;;5.80;;
31210;SDS011;17836;50.948;3.946;2022-07-23T05:33:21;7.20;;;6.50;;
31210;SDS011;17836;50.948;3.946;2022-07-23T05:35:46;8.63;;;7.30;;
31210;SDS011;17836;50.948;3.946;2022-07-23T05:38:11;6.75;;;6.05;;
31210;SDS011;17836;50.948;3.946;2022-07-23T05:40:36;7.57;;;6.80;;
31210;SDS011;17836;50.948;3.946;2022-07-23T05:43:02;8.10;;;7.30;;
31210;SDS011;17836;50.948;3.946;2022-07-23T05:45:27;9.17;;;6.77;;
31210;SDS011;17836;50.948;3.946;2022-07-23T05:47:52;7.70;;;6.90;;
31210;SDS011;17836;50.948;3.946;2022-07-23T05:50:17;8.53;;;7.67;;
31210;SDS011;17836;50.948;3.946;2022-07-23T05:52:43;9.47;;;6.20;;
31210;SDS011;17836;50.948;3.946;2022-07-23T05:55:09;9.75;;;6.70;;
31210;SDS011;17836;50.948;3.946;2022-07-23T05:57:34;7.93;;;6.65;;
31210;SDS011;17836;50.948;3.946;2022-07-23T06:00:00;8.60;;;7.20;;
31210;SDS011;17836;50.948;3.946;2022-07-23T06:02:25;7.63;;;6.87;;
31210;SDS011;17836;50.948;3.946;2022-07-23T06:04:50;8.23;;;7.13;;
31210;SDS011;17836;50.948;3.946;2022-07-23T06:07:15;6.72;;;5.60;;
31210;SDS011;17836;50.948;3.946;2022-07-23T06:09:41;9.13;;;7.05;;
31210;SDS011;17836;50.948;3.946;2022-07-23T06:12:07;7.38;;;6.68;;
31210;SDS011;17836;50.948;3.946;2022-07-23T06:14:32;8.60;;;6.35;;
31210;SDS011;17836;50.948;3.946;2022-07-23T06:16:57;6.37;;;5.57;;
31210;SDS011;17836;50.948;3.946;2022-07-23T06:19:22;6.43;;;5.83;;
31210;SDS011;17836;50.948;3.946;2022-07-23T06:21:48;6.30;;;5.70;;
31210;SDS011;17836;50.948;3.946;2022-07-23T06:24:13;5.50;;;4.93;;
31210;SDS011;17836;50.948;3.946;2022-07-23T06:26:38;5.17;;;4.30;;
31210;SDS011;17836;50.948;3.946;2022-07-23T06:29:03;5.17;;;4.23;;
31210;SDS011;17836;50.948;3.946;2022-07-23T06:31:29;5.50;;;4.53;;
31210;SDS011;17836;50.948;3.946;2022-07-23T06:33:54;4.30;;;3.90;;
31210;SDS011;17836;50.948;3.946;2022-07-23T06:36:19;5.83;;;5.33;;
31210;SDS011;17836;50.948;3.946;2022-07-23T06:38:45;4.70;;;4.23;;
31210;SDS011;17836;50.948;3.946;2022-07-23T06:41:10;5.07;;;4.63;;
31210;SDS011;17836;50.948;3.946;2022-07-23T06:43:35;5.70;;;5.00;;
31210;SDS011;17836;50.948;3.946;2022-07-23T06:46:01;3.72;;;3.42;;
31210;SDS011;17836;50.948;3.946;2022-07-23T06:48:26;7.23;;;4.13;;
31210;SDS011;17836;50.948;3.946;2022-07-23T06:50:52;4.55;;;4.10;;
31210;SDS011;17836;50.948;3.946;2022-07-23T06:53:17;4.40;;;3.92;;
31210;SDS011;17836;50.948;3.946;2022-07-23T06:55:42;5.47;;;3.90;;
31210;SDS011;17836;50.948;3.946;2022-07-23T06:58:08;4.20;;;3.80;;
31210;SDS011;17836;50.948;3.946;2022-07-23T07:00:34;7.25;;;4.53;;
31210;SDS011;17836;50.948;3.946;2022-07-23T07:03:00;4.77;;;3.97;;
31210;SDS011;17836;50.948;3.946;2022-07-23T07:05:25;5.10;;;4.67;;
31210;SDS011;17836;50.948;3.946;2022-07-23T07:07:52;5.68;;;4.10;;
31210;SDS011;17836;50.948;3.946;2022-07-23T07:10:17;6.28;;;4.75;;
31210;SDS011;17836;50.948;3.946;2022-07-23T07:12:43;5.07;;;4.15;;
31210;SDS011;17836;50.948;3.946;2022-07-23T07:15:08;5.00;;;4.50;;
31210;SDS011;17836;50.948;3.946;2022-07-23T07:17:33;5.70;;;5.10;;
31210;SDS011;17836;50.948;3.946;2022-07-23T07:19:59;6.77;;;4.27;;
31210;SDS011;17836;50.948;3.946;2022-07-23T07:22:24;4.67;;;4.10;;
31210;SDS011;17836;50.948;3.946;2022-07-23T07:24:49;5.20;;;4.30;;
31210;SDS011;17836;50.948;3.946;2022-07-23T07:27:15;5.15;;;4.75;;
31210;SDS011;17836;50.948;3.946;2022-07-23T07:29:40;5.90;;;4.70;;
31210;SDS011;17836;50.948;3.946;2022-07-23T07:32:05;5.10;;;4.60;;
31210;SDS011;17836;50.948;3.946;2022-07-23T07:34:31;5.27;;;4.77;;
31210;SDS011;17836;50.948;3.946;2022-07-23T07:36:56;5.20;;;4.70;;
31210;SDS011;17836;50.948;3.946;2022-07-23T07:39:21;6.20;;;5.60;;
31210;SDS011;17836;50.948;3.946;2022-07-23T07:41:47;6.43;;;4.87;;
31210;SDS011;17836;50.948;3.946;2022-07-23T07:44:12;5.47;;;4.97;;
31210;SDS011;17836;50.948;3.946;2022-07-23T07:46:37;5.93;;;5.43;;
31210;SDS011;17836;50.948;3.946;2022-07-23T07:49:03;6.38;;;5.15;;
31210;SDS011;17836;50.948;3.946;2022-07-23T07:51:29;6.70;;;5.82;;
31210;SDS011;17836;50.948;3.946;2022-07-23T07:53:54;5.85;;;4.72;;
31210;SDS011;17836;50.948;3.946;2022-07-23T07:56:20;5.93;;;5.33;;
31210;SDS011;17836;50.948;3.946;2022-07-23T07:58:45;6.13;;;5.57;;
31210;SDS011;17836;50.948;3.946;2022-07-23T08:01:10;5.07;;;4.57;;
31210;SDS011;17836;50.948;3.946;2022-07-23T08:03:35;6.23;;;4.47;;
31210;SDS011;17836;50.948;3.946;2022-07-23T08:06:00;6.37;;;5.40;;
31210;SDS011;17836;50.948;3.946;2022-07-23T08:08:26;7.07;;;4.73;;
31210;SDS011;17836;50.948;3.946;2022-07-23T08:10:51;6.63;;;4.93;;
31210;SDS011;17836;50.948;3.946;2022-07-23T08:13:16;6.35;;;4.75;;
31210;SDS011;17836;50.948;3.946;2022-07-23T08:15:42;5.20;;;4.20;;
31210;SDS011;17836;50.948;3.946;2022-07-23T08:18:07;5.35;;;4.85;;
31210;SDS011;17836;50.948;3.946;2022-07-23T08:20:32;6.90;;;4.83;;
31210;SDS011;17836;50.948;3.946;2022-07-23T08:22:59;4.37;;;3.97;;
31210;SDS011;17836;50.948;3.946;2022-07-23T08:25:25;5.00;;;4.47;;
31210;SDS011;17836;50.948;3.946;2022-07-23T08:27:51;4.38;;;3.97;;
31210;SDS011;17836;50.948;3.946;2022-07-23T08:30:17;3.83;;;3.53;;
31210;SDS011;17836;50.948;3.946;2022-07-23T08:32:53;5.53;;;4.28;;
31210;SDS011;17836;50.948;3.946;2022-07-23T08:35:23;6.18;;;4.25;;
31210;SDS011;17836;50.948;3.946;2022-07-23T08:37:49;5.38;;;3.97;;
31210;SDS011;17836;50.948;3.946;2022-07-23T08:40:14;5.85;;;4.10;;
31210;SDS011;17836;50.948;3.946;2022-07-23T08:42:40;4.97;;;3.60;;
31210;SDS011;17836;50.948;3.946;2022-07-23T08:45:06;4.10;;;3.70;;
31210;SDS011;17836;50.948;3.946;2022-07-23T08:47:32;5.90;;;3.22;;
31210;SDS011;17836;50.948;3.946;2022-07-23T08:49:57;4.23;;;3.20;;
31210;SDS011;17836;50.948;3.946;2022-07-23T08:52:23;3.42;;;3.13;;
31210;SDS011;17836;50.948;3.946;2022-07-23T08:54:49;4.40;;;2.85;;
31210;SDS011;17836;50.948;3.946;2022-07-23T08:57:14;3.97;;;3.40;;
31210;SDS011;17836;50.948;3.946;2022-07-23T08:59:40;3.40;;;2.90;;
31210;SDS011;17836;50.948;3.946;2022-07-23T09:02:05;6.50;;;3.00;;
31210;SDS011;17836;50.948;3.946;2022-07-23T09:04:31;3.90;;;2.83;;
31210;SDS011;17836;50.948;3.946;2022-07-23T09:06:57;3.65;;;2.88;;
31210;SDS011;17836;50.948;3.946;2022-07-23T09:09:23;3.50;;;2.92;;
31210;SDS011;17836;50.948;3.946;2022-07-23T09:12:03;3.72;;;2.85;;
31210;SDS011;17836;50.948;3.946;2022-07-23T09:14:40;3.42;;;2.80;;
31210;SDS011;17836;50.948;3.946;2022-07-23T09:17:12;4.10;;;2.97;;
31210;SDS011;17836;50.948;3.946;2022-07-23T09:19:39;3.50;;;2.20;;
31210;SDS011;17836;50.948;3.946;2022-07-23T09:22:17;3.08;;;2.13;;
31210;SDS011;17836;50.948;3.946;2022-07-23T09:25:02;2.13;;;1.80;;
31210;SDS011;17836;50.948;3.946;2022-07-23T09:27:44;4.00;;;2.03;;
31210;SDS011;17836;50.948;3.946;2022-07-23T09:30:10;1.92;;;1.63;;
31210;SDS011;17836;50.948;3.946;2022-07-23T09:32:35;2.20;;;1.90;;
31210;SDS011;17836;50.948;3.946;2022-07-23T09:35:01;2.07;;;1.87;;
31210;SDS011;17836;50.948;3.946;2022-07-23T09:37:29;3.50;;;2.08;;
31210;SDS011;17836;50.948;3.946;2022-07-23T09:40:02;3.20;;;1.83;;
31210;SDS011;17836;50.948;3.946;2022-07-23T09:42:27;4.20;;;1.95;;
31210;SDS011;17836;50.948;3.946;2022-07-23T09:44:53;3.80;;;2.27;;
31210;SDS011;17836;50.948;3.946;2022-07-23T09:47:19;3.60;;;1.60;;
31210;SDS011;17836;50.948;3.946;2022-07-23T09:50:02;1.95;;;1.77;;
31210;SDS011;17836;50.948;3.946;2022-07-23T09:52:30;3.35;;;1.67;;
31210;SDS011;17836;50.948;3.946;2022-07-23T09:54:59;1.98;;;1.67;;
31210;SDS011;17836;50.948;3.946;2022-07-23T09:57:25;3.28;;;2.30;;
31210;SDS011;17836;50.948;3.946;2022-07-23T09:59:51;3.03;;;1.83;;
31210;SDS011;17836;50.948;3.946;2022-07-23T10:02:16;3.10;;;1.50;;
31210;SDS011;17836;50.948;3.946;2022-07-23T10:04:42;1.85;;;1.60;;
31210;SDS011;17836;50.948;3.946;2022-07-23T10:07:09;2.17;;;1.98;;
31210;SDS011;17836;50.948;3.946;2022-07-23T10:09:36;2.67;;;1.40;;
31210;SDS011;17836;50.948;3.946;2022-07-23T10:12:03;1.88;;;1.67;;
31210;SDS011;17836;50.948;3.946;2022-07-23T10:14:40;2.15;;;1.70;;
31210;SDS011;17836;50.948;3.946;2022-07-23T10:17:14;4.03;;;1.98;;
31210;SDS011;17836;50.948;3.946;2022-07-23T10:19:39;2.13;;;1.77;;
31210;SDS011;17836;50.948;3.946;2022-07-23T10:23:10;1.80;;;1.10;;
31210;SDS011;17836;50.948;3.946;2022-07-23T10:27:48;1.70;;;1.20;;
31210;SDS011;17836;50.948;3.946;2022-07-23T10:35:17;2.03;;;0.98;;
31210;SDS011;17836;50.948;3.946;2022-07-23T10:37:45;1.33;;;1.17;;
31210;SDS011;17836;50.948;3.946;2022-07-23T10:40:18;1.00;;;0.90;;
31210;SDS011;17836;50.948;3.946;2022-07-23T10:42:47;1.48;;;1.00;;
31210;SDS011;17836;50.948;3.946;2022-07-23T10:45:22;1.35;;;1.20;;
31210;SDS011;17836;50.948;3.946;2022-07-23T10:47:48;1.65;;;1.30;;
31210;SDS011;17836;50.948;3.946;2022-07-23T10:50:25;2.33;;;1.35;;
31210;SDS011;17836;50.948;3.946;2022-07-23T10:57:51;4.17;;;1.77;;
31210;SDS011;17836;50.948;3.946;2022-07-23T11:00:20;1.87;;;1.33;;
31210;SDS011;17836;50.948;3.946;2022-07-23T11:02:46;1.60;;;1.10;;
31210;SDS011;17836;50.948;3.946;2022-07-23T11:05:14;2.17;;;1.25;;
31210;SDS011;17836;50.948;3.946;2022-07-23T11:10:31;1.08;;;0.80;;
31210;SDS011;17836;50.948;3.946;2022-07-23T11:12:56;1.10;;;1.00;;
31210;SDS011;17836;50.948;3.946;2022-07-23T11:34:32;2.65;;;1.40;;
31210;SDS011;17836;50.948;3.946;2022-07-23T11:36:58;1.25;;;1.00;;
31210;SDS011;17836;50.948;3.946;2022-07-23T11:39:26;4.18;;;1.25;;
31210;SDS011;17836;50.948;3.946;2022-07-23T11:41:52;2.08;;;1.30;;
31210;SDS011;17836;50.948;3.946;2022-07-23T11:47:07;2.55;;;1.50;;
31210;SDS011;17836;50.948;3.946;2022-07-23T11:49:32;1.40;;;1.10;;
31210;SDS011;17836;50.948;3.946;2022-07-23T11:54:33;2.83;;;1.52;;
31210;SDS011;17836;50.948;3.946;2022-07-23T11:56:59;3.83;;;1.80;;
31210;SDS011;17836;50.948;3.946;2022-07-23T11:59:25;2.42;;;1.88;;
31210;SDS011;17836;50.948;3.946;2022-07-23T12:02:03;2.78;;;2.10;;
31210;SDS011;17836;50.948;3.946;2022-07-23T12:04:42;2.50;;;1.20;;
31210;SDS011;17836;50.948;3.946;2022-07-23T12:09:49;1.58;;;1.30;;
31210;SDS011;17836;50.948;3.946;2022-07-23T12:12:14;1.63;;;1.40;;
31210;SDS011;17836;50.948;3.946;2022-07-23T12:14:57;2.33;;;1.48;;
31210;SDS011;17836;50.948;3.946;2022-07-23T12:17:27;2.47;;;1.77;;
31210;SDS011;17836;50.948;3.946;2022-07-23T12:19:54;1.60;;;1.25;;
31210;SDS011;17836;50.948;3.946;2022-07-23T12:22:19;2.88;;;2.00;;
31210;SDS011;17836;50.948;3.946;2022-07-23T12:24:59;1.63;;;1.13;;
31210;SDS011;17836;50.948;3.946;2022-07-23T12:27:26;1.70;;;1.13;;
31210;SDS011;17836;50.948;3.946;2022-07-23T12:29:51;1.83;;;1.10;;
31210;SDS011;17836;50.948;3.946;2022-07-23T12:32:18;2.47;;;1.53;;
31210;SDS011;17836;50.948;3.946;2022-07-23T12:34:43;1.45;;;1.23;;
31210;SDS011;17836;50.948;3.946;2022-07-23T12:37:23;1.67;;;1.58;;
31210;SDS011;17836;50.948;3.946;2022-07-23T12:39:49;2.33;;;1.70;;
31210;SDS011;17836;50.948;3.946;2022-07-23T12:42:14;2.17;;;1.50;;
31210;SDS011;17836;50.948;3.946;2022-07-23T12:44:39;2.10;;;1.50;;
31210;SDS011;17836;50.948;3.946;2022-07-23T12:47:04;1.70;;;1.43;;
31210;SDS011;17836;50.948;3.946;2022-07-23T12:49:30;2.83;;;1.30;;
31210;SDS011;17836;50.948;3.946;2022-07-23T12:51:55;3.10;;;1.88;;
31210;SDS011;17836;50.948;3.946;2022-07-23T12:54:26;2.27;;;1.80;;
31210;SDS011;17836;50.948;3.946;2022-07-23T12:56:51;1.45;;;1.35;;
31210;SDS011;17836;50.948;3.946;2022-07-23T12:59:17;1.50;;;1.40;;
31210;SDS011;17836;50.948;3.946;2022-07-23T13:01:42;1.63;;;1.20;;
31210;SDS011;17836;50.948;3.946;2022-07-23T13:04:09;2.00;;;1.42;;
31210;SDS011;17836;50.948;3.946;2022-07-23T13:06:39;1.70;;;1.55;;
31210;SDS011;17836;50.948;3.946;2022-07-23T13:09:05;1.73;;;1.20;;
31210;SDS011;17836;50.948;3.946;2022-07-23T13:11:31;2.05;;;1.70;;
31210;SDS011;17836;50.948;3.946;2022-07-23T13:13:57;2.33;;;1.65;;
31210;SDS011;17836;50.948;3.946;2022-07-23T13:16:22;1.85;;;1.48;;
31210;SDS011;17836;50.948;3.946;2022-07-23T13:18:48;1.40;;;1.30;;
31210;SDS011;17836;50.948;3.946;2022-07-23T13:21:13;1.50;;;1.40;;
31210;SDS011;17836;50.948;3.946;2022-07-23T13:23:38;3.00;;;1.20;;
31210;SDS011;17836;50.948;3.946;2022-07-23T13:26:03;1.55;;;1.10;;
31210;SDS011;17836;50.948;3.946;2022-07-23T13:28:29;1.60;;;1.30;;
31210;SDS011;17836;50.948;3.946;2022-07-23T13:30:54;1.33;;;1.23;;
31210;SDS011;17836;50.948;3.946;2022-07-23T13:33:20;1.43;;;1.33;;
31210;SDS011;17836;50.948;3.946;2022-07-23T13:35:46;1.52;;;1.10;;
31210;SDS011;17836;50.948;3.946;2022-07-23T13:38:12;3.80;;;1.60;;
31210;SDS011;17836;50.948;3.946;2022-07-23T13:40:38;2.50;;;1.30;;
31210;SDS011;17836;50.948;3.946;2022-07-23T13:43:04;1.48;;;1.35;;
31210;SDS011;17836;50.948;3.946;2022-07-23T13:45:33;2.15;;;1.92;;
31210;SDS011;17836;50.948;3.946;2022-07-23T13:47:58;1.67;;;1.50;;
31210;SDS011;17836;50.948;3.946;2022-07-23T13:50:24;2.53;;;1.33;;
31210;SDS011;17836;50.948;3.946;2022-07-23T13:52:49;2.23;;;1.80;;
31210;SDS011;17836;50.948;3.946;2022-07-23T13:55:15;3.33;;;1.52;;
31210;SDS011;17836;50.948;3.946;2022-07-23T13:57:43;2.70;;;1.75;;
31210;SDS011;17836;50.948;3.946;2022-07-23T14:00:09;2.90;;;1.40;;
31210;SDS011;17836;50.948;3.946;2022-07-23T14:02:36;1.95;;;1.50;;
31210;SDS011;17836;50.948;3.946;2022-07-23T14:05:03;1.50;;;1.27;;
31210;SDS011;17836;50.948;3.946;2022-07-23T14:07:28;1.40;;;1.20;;
31210;SDS011;17836;50.948;3.946;2022-07-23T14:09:56;2.08;;;1.52;;
31210;SDS011;17836;50.948;3.946;2022-07-23T14:12:22;1.57;;;1.40;;
31210;SDS011;17836;50.948;3.946;2022-07-23T14:14:47;1.80;;;1.40;;
31210;SDS011;17836;50.948;3.946;2022-07-23T14:17:13;2.38;;;1.38;;
31210;SDS011;17836;50.948;3.946;2022-07-23T14:19:38;2.43;;;1.30;;
31210;SDS011;17836;50.948;3.946;2022-07-23T14:22:03;1.70;;;1.30;;
31210;SDS011;17836;50.948;3.946;2022-07-23T14:24:29;1.98;;;1.70;;
31210;SDS011;17836;50.948;3.946;2022-07-23T14:26:55;2.97;;;1.88;;
31210;SDS011;17836;50.948;3.946;2022-07-23T14:29:20;1.95;;;1.58;;
31210;SDS011;17836;50.948;3.946;2022-07-23T14:31:46;3.42;;;1.85;;
31210;SDS011;17836;50.948;3.946;2022-07-23T14:34:12;1.92;;;1.70;;
31210;SDS011;17836;50.948;3.946;2022-07-23T14:36:37;2.07;;;1.60;;
31210;SDS011;17836;50.948;3.946;2022-07-23T14:39:03;1.60;;;1.48;;
31210;SDS011;17836;50.948;3.946;2022-07-23T14:41:28;1.85;;;1.42;;
31210;SDS011;17836;50.948;3.946;2022-07-23T14:43:53;2.90;;;1.83;;
31210;SDS011;17836;50.948;3.946;2022-07-23T14:46:19;1.83;;;1.67;;
31210;SDS011;17836;50.948;3.946;2022-07-23T14:48:44;2.00;;;1.50;;
31210;SDS011;17836;50.948;3.946;2022-07-23T14:51:09;3.37;;;1.90;;
31210;SDS011;17836;50.948;3.946;2022-07-23T14:53:34;3.27;;;1.87;;
31210;SDS011;17836;50.948;3.946;2022-07-23T14:56:00;1.93;;;1.77;;
31210;SDS011;17836;50.948;3.946;2022-07-23T14:58:25;2.37;;;2.17;;
31210;SDS011;17836;50.948;3.946;2022-07-23T15:00:51;1.98;;;1.65;;
31210;SDS011;17836;50.948;3.946;2022-07-23T15:03:16;3.53;;;2.38;;
31210;SDS011;17836;50.948;3.946;2022-07-23T15:05:41;1.70;;;1.55;;
31210;SDS011;17836;50.948;3.946;2022-07-23T15:08:07;2.30;;;1.90;;
31210;SDS011;17836;50.948;3.946;2022-07-23T15:10:32;1.90;;;1.80;;
31210;SDS011;17836;50.948;3.946;2022-07-23T15:12:57;3.23;;;2.40;;
31210;SDS011;17836;50.948;3.946;2022-07-23T15:15:22;3.93;;;2.13;;
31210;SDS011;17836;50.948;3.946;2022-07-23T15:17:48;2.20;;;1.83;;
31210;SDS011;17836;50.948;3.946;2022-07-23T15:20:13;4.23;;;1.97;;
31210;SDS011;17836;50.948;3.946;2022-07-23T15:22:39;2.10;;;1.90;;
31210;SDS011;17836;50.948;3.946;2022-07-23T15:25:04;2.53;;;2.00;;